Mersin, Turkey

7:17 AM EEST on September 19, 2014 (GMT +0300)
Adana | Change Station
CLOSE
Current Station
Airport
Location: Adana,
Elevation: 66 ft
Nearby Weather Stations

Elev 66 ft 36.98 °N, 35.30 °E | Updated 27 minutes ago

Mostly Cloudy
Mostly Cloudy
72 °F
Feels Like 72 °F
N
2
Wind Variable Wind from Variable

Today
High -- | Low -- °F
--% Chance of Precip.
Yesterday
High -- | Low -- °F
Precip. -- in
6:26 AM 6:43 PM
Waning Crescent, 22% visible
Pressure 29.92 in
Visibility 6.2 miles
Clouds Few 4000 ft
Mostly Cloudy 10000 ft
Dew Point 64 °F
Humidity 78%
Rainfall 0.00 in
Snow Depth Not available.
UV 0 out of 12
Pollen Not available.
Air Quality Not available.
Flu Activity Not available.
METAR LTAF 190350Z VRB02KT 9999 FEW040 BKN100 22/18 Q1013 NOSIG RMK RWY23 04004KT

More Conditions Fewer Conditions

Pressure 29.92 in
Visibility 6.2 miles
Clouds Few 4000 ft
Mostly Cloudy 10000 ft
Dew Point 64 °F
Humidity 78%
Rainfall 0.00 in
Snow Depth Not available.
UV 0 out of 12
Pollen Not available.
Air Quality Not available.
Flu Activity Not available.
METAR LTAF 190350Z VRB02KT 9999 FEW040 BKN100 22/18 Q1013 NOSIG RMK RWY23 04004KT

More Conditions Fewer Conditions

10-Day Weather Forecast

Almanac

Astronomy

Sep. 19, 2014 Rise Set
Actual Time 6:26 AM EEST 6:43 PM EEST
Civil Twilight 6:00 AM EEST 7:09 PM EEST
Nautical Twilight 5:30 AM EEST 7:39 PM EEST
Astronomical Twilight 4:59 AM EEST 8:10 PM EEST
Moon 1:58 AM EEST 3:54 PM EEST
Length of Visible Light 13h 08m
Length of Day
12h 16m
Tomorrow will be 2m 20s shorter.
Waning Crescent, 22% of the Moon is Illuminated
Today
Waning Crescent
Sep 24
New
Oct 1
First Quarter
Oct 8
Full
Oct 15
Last Quarter

Yesterday's Extremes

Country Highs Country Lows

Community

WunderPhotos

Upload Photos

1,754,558 photos uploaded!

Nearby

Snow Depth

Not available.

Earthquake Activity

City Distance Mag. Time & Date
No recent earthquake activity has been reported nearby.
Minimum magnitude displayed is 2.5.

Coastal Water Temperatures

Place Temperature
No Stations Reporting

Nearby Weather Stations